createdAt,value
2022-12-25T00:00:50.630Z,5.39
2022-12-25T00:03:17.175Z,5.44
2022-12-25T00:05:43.730Z,5.46
2022-12-25T00:08:10.569Z,5.47
2022-12-25T00:10:43.006Z,5.51
2022-12-25T00:13:11.770Z,5.53
2022-12-25T00:15:40.800Z,5.53
2022-12-25T00:18:07.158Z,5.54
2022-12-25T00:20:33.712Z,5.52
2022-12-25T00:23:00.092Z,5.51
2022-12-25T00:25:26.436Z,5.58
2022-12-25T00:27:53.426Z,5.57
2022-12-25T00:30:19.756Z,5.63
2022-12-25T00:32:46.078Z,5.75
2022-12-25T00:35:12.777Z,5.75
2022-12-25T00:37:39.185Z,5.75
2022-12-25T00:40:06.139Z,5.74
2022-12-25T00:42:32.852Z,5.68
2022-12-25T00:45:01.928Z,5.55
2022-12-25T00:47:29.414Z,5.44
2022-12-25T00:49:55.792Z,5.45
2022-12-25T00:52:22.537Z,5.44
2022-12-25T00:54:48.873Z,5.44
2022-12-25T00:57:15.705Z,5.44
2022-12-25T00:59:42.421Z,5.41
2022-12-25T01:02:29.203Z,5.46
2022-12-25T01:04:57.155Z,5.52
2022-12-25T01:07:26.898Z,5.53
2022-12-25T01:10:11.871Z,5.57
2022-12-25T01:12:41.484Z,5.57
2022-12-25T01:15:09.940Z,5.60
2022-12-25T01:17:36.314Z,5.62
2022-12-25T01:20:03.213Z,5.56
2022-12-25T01:22:29.548Z,5.51
2022-12-25T01:24:55.895Z,5.48
2022-12-25T01:27:22.731Z,5.49
2022-12-25T01:29:49.064Z,5.50
2022-12-25T01:32:15.438Z,5.50
2022-12-25T01:34:42.343Z,5.50
2022-12-25T01:37:08.696Z,5.53
2022-12-25T01:39:35.046Z,5.50
2022-12-25T01:42:01.744Z,5.56
2022-12-25T01:44:37.075Z,5.55
2022-12-25T01:47:05.543Z,5.51
2022-12-25T01:49:35.083Z,5.51
2022-12-25T01:52:25.231Z,5.52
2022-12-25T01:54:53.969Z,5.53
2022-12-25T01:57:25.953Z,5.52
2022-12-25T01:59:54.309Z,5.49
2022-12-25T02:02:22.022Z,5.51
2022-12-25T02:04:55.885Z,5.54
2022-12-25T02:07:25.201Z,5.57
2022-12-25T02:09:52.504Z,5.58
2022-12-25T02:12:21.524Z,5.56
2022-12-25T02:14:50.035Z,5.54
2022-12-25T02:17:19.475Z,5.52
2022-12-25T02:20:16.267Z,5.52
2022-12-25T02:23:15.415Z,5.51
2022-12-25T02:26:29.600Z,5.48
2022-12-25T02:28:59.163Z,5.49
2022-12-25T02:31:37.704Z,5.47
2022-12-25T02:34:15.926Z,5.53
2022-12-25T02:37:25.393Z,5.49
2022-12-25T02:40:02.707Z,5.49
2022-12-25T02:43:25.769Z,5.52
2022-12-25T02:46:30.776Z,5.50
2022-12-25T02:49:19.795Z,5.48
2022-12-25T02:52:10.697Z,5.49
2022-12-25T02:55:01.023Z,5.42
2022-12-25T02:57:50.866Z,5.45
2022-12-25T03:00:36.446Z,5.56
2022-12-25T03:03:25.680Z,5.67
2022-12-25T03:06:16.579Z,5.69
2022-12-25T03:08:46.622Z,5.78
2022-12-25T03:11:31.618Z,5.79
2022-12-25T03:14:21.359Z,5.78
2022-12-25T03:16:55.336Z,5.82
2022-12-25T03:19:43.238Z,5.82
2022-12-25T03:22:33.927Z,5.84
2022-12-25T03:25:19.164Z,5.86
2022-12-25T03:27:46.868Z,5.89
2022-12-25T03:30:31.854Z,5.73
2022-12-25T03:33:44.450Z,5.72
2022-12-25T03:36:25.082Z,5.60
2022-12-25T03:39:39.822Z,5.63
2022-12-25T03:42:26.083Z,5.73
2022-12-25T03:45:34.275Z,5.79
2022-12-25T03:48:13.573Z,5.85
2022-12-25T03:51:13.335Z,5.85
2022-12-25T03:54:03.176Z,5.90
2022-12-25T03:57:03.369Z,5.90
2022-12-25T03:59:48.013Z,5.92
2022-12-25T04:02:33.163Z,5.97
2022-12-25T04:05:18.368Z,5.95
2022-12-25T04:08:03.522Z,5.95
2022-12-25T04:10:48.223Z,5.82
2022-12-25T04:13:34.448Z,5.69
2022-12-25T04:16:19.228Z,5.76
2022-12-25T04:19:04.645Z,5.84
2022-12-25T04:21:49.716Z,5.82
2022-12-25T04:24:34.906Z,5.77
2022-12-25T04:27:19.545Z,5.62
2022-12-25T04:30:04.604Z,5.69
2022-12-25T04:32:49.849Z,5.85
2022-12-25T04:35:35.154Z,5.84
2022-12-25T04:38:01.513Z,5.79
2022-12-25T04:40:27.925Z,5.74
2022-12-25T04:42:54.647Z,5.73
2022-12-25T04:45:21.047Z,5.72
2022-12-25T04:47:47.376Z,5.84
2022-12-25T04:50:14.189Z,5.82
2022-12-25T04:52:41.128Z,5.83
2022-12-25T04:55:09.694Z,5.80
2022-12-25T04:57:36.364Z,5.83
2022-12-25T05:00:03.560Z,5.95
2022-12-25T05:02:30.072Z,5.90
2022-12-25T05:04:56.865Z,5.79
2022-12-25T05:07:23.253Z,5.71
2022-12-25T05:09:49.607Z,5.62
2022-12-25T05:12:16.295Z,5.66
2022-12-25T05:14:42.688Z,5.79
2022-12-25T05:17:09.063Z,5.83
2022-12-25T05:19:35.870Z,5.91
2022-12-25T05:22:02.191Z,5.83
2022-12-25T05:24:28.741Z,5.77
2022-12-25T05:26:55.437Z,5.68
2022-12-25T05:29:21.829Z,5.53
2022-12-25T05:31:48.624Z,5.56
2022-12-25T05:34:15.418Z,5.52
2022-12-25T05:36:41.780Z,5.53
2022-12-25T05:39:08.694Z,5.67
2022-12-25T05:41:35.155Z,5.57
2022-12-25T05:44:01.712Z,5.43
2022-12-25T05:46:28.604Z,5.38
2022-12-25T05:48:55.022Z,5.43
2022-12-25T05:51:21.508Z,5.52
2022-12-25T05:53:48.347Z,5.56
2022-12-25T05:56:14.680Z,5.59
2022-12-25T05:58:41.693Z,5.60
2022-12-25T06:01:17.472Z,5.63
2022-12-25T06:03:43.938Z,5.63
2022-12-25T06:06:11.160Z,5.62
2022-12-25T06:08:38.411Z,5.60
2022-12-25T06:11:06.655Z,5.75
2022-12-25T06:13:34.208Z,5.63
2022-12-25T06:16:07.610Z,5.49
2022-12-25T06:18:44.301Z,5.50
2022-12-25T06:21:13.014Z,5.73
2022-12-25T06:23:40.037Z,5.71
2022-12-25T06:26:09.027Z,5.74
2022-12-25T06:28:35.953Z,5.88
2022-12-25T06:31:15.051Z,5.82
2022-12-25T06:33:42.382Z,5.74
2022-12-25T06:36:21.123Z,5.73
2022-12-25T06:38:48.574Z,5.71
2022-12-25T06:41:20.188Z,5.73
2022-12-25T06:43:51.501Z,5.88
2022-12-25T06:46:19.510Z,5.88
2022-12-25T06:48:50.031Z,5.66
2022-12-25T06:51:19.317Z,5.73
2022-12-25T06:53:46.816Z,5.75
2022-12-25T06:56:15.932Z,5.75
2022-12-25T06:58:48.158Z,5.60
2022-12-25T07:01:25.454Z,5.49
2022-12-25T07:03:55.748Z,5.52
2022-12-25T07:06:22.805Z,5.56
2022-12-25T07:08:49.439Z,5.51
2022-12-25T07:11:16.026Z,5.52
2022-12-25T07:13:42.729Z,5.54
2022-12-25T07:16:11.578Z,5.65
2022-12-25T07:18:39.149Z,5.68
2022-12-25T07:21:16.133Z,5.80
2022-12-25T07:23:46.293Z,5.81
2022-12-25T07:26:13.922Z,5.78
2022-12-25T07:28:40.714Z,5.72
2022-12-25T07:31:11.890Z,5.73
2022-12-25T07:33:38.620Z,5.60
2022-12-25T07:36:06.015Z,5.62
2022-12-25T07:38:32.777Z,5.62
2022-12-25T07:40:59.243Z,5.57
2022-12-25T07:43:25.936Z,5.56
2022-12-25T07:45:59.704Z,5.59
2022-12-25T07:48:27.858Z,5.69
2022-12-25T07:50:59.626Z,5.73
2022-12-25T07:53:26.527Z,5.91
2022-12-25T07:55:57.925Z,6.15
2022-12-25T07:58:24.462Z,6.16
2022-12-25T08:00:50.951Z,6.18
2022-12-25T08:03:18.201Z,6.24
2022-12-25T08:05:45.519Z,6.30
2022-12-25T08:08:11.959Z,6.36
2022-12-25T08:10:38.358Z,6.36
2022-12-25T08:13:10.855Z,6.43
2022-12-25T08:15:41.035Z,6.23
2022-12-25T08:18:07.940Z,6.24
2022-12-25T08:20:34.789Z,6.45
2022-12-25T08:23:01.246Z,6.64
2022-12-25T08:25:28.249Z,6.63
2022-12-25T08:27:54.641Z,6.76
2022-12-25T08:30:20.964Z,6.77
2022-12-25T08:32:47.796Z,6.88
2022-12-25T08:35:14.222Z,6.89
2022-12-25T08:37:40.565Z,6.77
2022-12-25T08:40:07.934Z,6.67
2022-12-25T08:42:34.540Z,6.81
2022-12-25T08:45:00.872Z,6.94
2022-12-25T08:47:27.195Z,7.06
2022-12-25T08:49:54.045Z,6.89
2022-12-25T08:52:20.591Z,6.94
2022-12-25T08:54:47.611Z,7.07
2022-12-25T08:57:13.955Z,7.47
2022-12-25T08:59:40.296Z,7.76
2022-12-25T09:02:07.250Z,7.22
2022-12-25T09:04:33.742Z,7.27
2022-12-25T09:07:00.087Z,7.57
2022-12-25T09:09:30.112Z,7.44
2022-12-25T09:11:56.462Z,6.93
2022-12-25T09:14:22.802Z,6.88
2022-12-25T09:16:52.323Z,7.53
2022-12-25T09:19:18.779Z,7.99
2022-12-25T09:21:45.247Z,8.46
2022-12-25T09:24:11.968Z,8.63
2022-12-25T09:26:38.333Z,8.18
2022-12-25T09:29:04.703Z,8.17
2022-12-25T09:31:31.593Z,8.27
2022-12-25T09:33:58.265Z,8.39
2022-12-25T09:36:25.503Z,8.58
2022-12-25T09:38:52.821Z,8.97
2022-12-25T09:41:38.862Z,8.56
2022-12-25T09:44:17.763Z,8.49
2022-12-25T09:46:50.630Z,8.13
2022-12-25T09:49:20.422Z,8.06
2022-12-25T09:51:53.479Z,8.10
2022-12-25T09:54:30.146Z,7.95
2022-12-25T09:56:57.233Z,7.42
2022-12-25T09:59:25.837Z,7.55
2022-12-25T10:02:25.708Z,7.67
2022-12-25T10:05:18.935Z,7.38
2022-12-25T10:07:50.335Z,7.32
2022-12-25T10:10:45.753Z,7.35
2022-12-25T10:13:48.017Z,7.59
2022-12-25T10:16:25.154Z,7.65
2022-12-25T10:19:03.524Z,7.56
2022-12-25T10:21:31.176Z,7.56
2022-12-25T10:24:27.650Z,7.55
2022-12-25T10:26:56.252Z,7.50
2022-12-25T10:29:22.688Z,7.37
2022-12-25T10:31:54.135Z,7.24
2022-12-25T10:34:21.268Z,7.37
2022-12-25T10:36:47.844Z,7.55
2022-12-25T10:39:23.996Z,7.60
2022-12-25T10:42:16.083Z,7.49
2022-12-25T10:45:01.501Z,7.63
2022-12-25T10:47:34.720Z,7.85
2022-12-25T10:50:28.877Z,7.95
2022-12-25T10:52:59.905Z,8.08
2022-12-25T10:55:29.190Z,8.01
2022-12-25T10:57:57.636Z,8.10
2022-12-25T11:00:27.677Z,8.22
2022-12-25T11:02:54.483Z,8.32
2022-12-25T11:05:35.332Z,8.26
2022-12-25T11:08:03.052Z,8.52
2022-12-25T11:10:36.990Z,8.52
2022-12-25T11:13:07.499Z,8.67
2022-12-25T11:15:40.864Z,8.68
2022-12-25T11:18:32.501Z,8.60
2022-12-25T11:21:16.078Z,8.78
2022-12-25T11:23:48.222Z,8.93
2022-12-25T11:26:16.352Z,8.69
2022-12-25T11:28:45.218Z,8.74
2022-12-25T11:31:37.894Z,8.75
2022-12-25T11:34:20.099Z,8.67
2022-12-25T11:36:50.010Z,8.90
2022-12-25T11:39:33.887Z,8.92
2022-12-25T11:42:20.916Z,9.01
2022-12-25T11:44:51.623Z,9.13
2022-12-25T11:47:35.616Z,9.00
2022-12-25T11:50:28.278Z,9.11
2022-12-25T11:52:56.334Z,9.26
2022-12-25T11:55:28.312Z,9.24
2022-12-25T11:58:02.227Z,9.17
2022-12-25T12:00:30.670Z,9.25
2022-12-25T12:03:06.841Z,9.36
2022-12-25T12:05:46.186Z,9.45
2022-12-25T12:08:14.172Z,9.31
2022-12-25T12:10:55.130Z,9.33
2022-12-25T12:13:31.299Z,9.47
2022-12-25T12:15:58.500Z,9.59
2022-12-25T12:18:28.184Z,9.50
2022-12-25T12:21:07.029Z,9.55
2022-12-25T12:23:47.476Z,9.45
2022-12-25T12:26:23.705Z,9.56
2022-12-25T12:28:53.851Z,9.68
2022-12-25T12:31:20.263Z,9.55
2022-12-25T12:33:52.736Z,9.44
2022-12-25T12:36:34.507Z,9.43
2022-12-25T12:39:01.957Z,9.41
2022-12-25T12:41:44.858Z,9.41
2022-12-25T12:44:12.842Z,9.63
2022-12-25T12:46:51.680Z,9.85
2022-12-25T12:49:25.682Z,10.14
2022-12-25T12:52:21.643Z,10.23
2022-12-25T12:55:14.347Z,10.17
2022-12-25T12:57:41.997Z,9.98
2022-12-25T13:00:17.281Z,10.10
2022-12-25T13:02:44.016Z,10.09
2022-12-25T13:05:40.620Z,9.88
2022-12-25T13:08:29.177Z,9.84
2022-12-25T13:11:14.091Z,10.01
2022-12-25T13:13:44.052Z,10.18
2022-12-25T13:16:21.716Z,10.00
2022-12-25T13:18:50.713Z,9.85
2022-12-25T13:21:22.740Z,9.77
2022-12-25T13:23:59.791Z,9.83
2022-12-25T13:26:27.001Z,9.84
2022-12-25T13:28:55.820Z,9.93
2022-12-25T13:31:28.337Z,9.82
2022-12-25T13:34:02.257Z,9.80
2022-12-25T13:36:31.033Z,9.79
2022-12-25T13:38:59.740Z,9.84
2022-12-25T13:42:03.155Z,9.90
2022-12-25T13:44:41.395Z,9.90
2022-12-25T13:47:20.097Z,9.92
2022-12-25T13:49:47.389Z,9.85
2022-12-25T13:52:17.747Z,9.83
2022-12-25T13:55:00.270Z,9.76
2022-12-25T13:57:39.618Z,9.70
2022-12-25T14:00:08.496Z,9.71
2022-12-25T14:02:37.507Z,9.74
2022-12-25T14:05:32.384Z,9.75
2022-12-25T14:08:13.711Z,9.73
2022-12-25T14:10:41.391Z,9.72
2022-12-25T14:13:12.655Z,9.70
2022-12-25T14:15:40.917Z,9.72
2022-12-25T14:18:14.080Z,9.66
2022-12-25T14:20:42.413Z,9.62
2022-12-25T14:23:16.242Z,9.54
2022-12-25T14:25:44.210Z,9.50
2022-12-25T14:28:32.450Z,9.40
2022-12-25T14:31:00.689Z,9.21
2022-12-25T14:33:31.086Z,9.18
2022-12-25T14:35:59.466Z,9.05
2022-12-25T14:38:35.087Z,8.87
2022-12-25T14:41:05.659Z,8.79
2022-12-25T14:43:32.923Z,8.74
2022-12-25T14:46:02.635Z,8.70
2022-12-25T14:48:33.251Z,8.57
2022-12-25T14:51:04.512Z,8.42
2022-12-25T14:53:48.038Z,8.43
2022-12-25T14:56:20.199Z,8.38
2022-12-25T14:58:54.082Z,8.36
2022-12-25T15:01:35.893Z,8.29
2022-12-25T15:04:10.413Z,8.15
2022-12-25T15:07:01.109Z,7.95
2022-12-25T15:09:30.219Z,7.80
2022-12-25T15:11:56.899Z,7.68
2022-12-25T15:14:24.780Z,7.69
2022-12-25T15:16:58.647Z,7.58
2022-12-25T15:19:37.423Z,7.49
2022-12-25T15:22:05.358Z,7.55
2022-12-25T15:24:32.169Z,7.59
2022-12-25T15:27:00.448Z,7.27
2022-12-25T15:32:23.039Z,6.97
2022-12-25T15:34:50.356Z,6.67
2022-12-25T15:37:18.769Z,6.53
2022-12-25T15:39:45.334Z,6.41
2022-12-25T15:42:21.907Z,6.46
2022-12-25T15:44:48.307Z,6.52
2022-12-25T15:47:16.818Z,6.50
2022-12-25T15:49:43.723Z,6.65
2022-12-25T15:52:13.609Z,6.77
2022-12-25T15:54:39.947Z,6.65
2022-12-25T15:57:12.444Z,6.60
2022-12-25T15:59:38.782Z,6.68
2022-12-25T16:02:15.443Z,6.89
2022-12-25T16:04:42.451Z,6.73
2022-12-25T16:07:21.988Z,6.66
2022-12-25T16:09:48.969Z,6.98
2022-12-25T16:12:15.837Z,6.89
2022-12-25T16:14:42.212Z,6.69
2022-12-25T16:17:12.153Z,6.47
2022-12-25T16:19:38.892Z,6.43
2022-12-25T16:22:20.137Z,6.26
2022-12-25T16:24:46.863Z,5.95
2022-12-25T16:27:13.191Z,5.95
2022-12-25T16:29:39.516Z,5.86
2022-12-25T16:32:06.235Z,5.87
2022-12-25T16:34:32.581Z,5.83
2022-12-25T16:36:58.919Z,5.77
2022-12-25T16:39:25.621Z,5.69
2022-12-25T16:41:52.025Z,5.79
2022-12-25T16:44:18.381Z,5.56
2022-12-25T16:46:45.154Z,5.48
2022-12-25T16:49:11.517Z,5.46
2022-12-25T16:51:37.872Z,5.42
2022-12-25T16:54:04.996Z,5.36
2022-12-25T16:56:32.265Z,5.29
2022-12-25T16:59:00.777Z,5.44
2022-12-25T17:01:27.698Z,5.51
2022-12-25T17:03:54.461Z,5.74
2022-12-25T17:06:23.545Z,5.93
2022-12-25T17:08:52.247Z,6.13
2022-12-25T17:11:23.388Z,6.18
2022-12-25T17:13:49.750Z,6.31
2022-12-25T17:16:19.375Z,6.47
2022-12-25T17:18:46.307Z,6.57
2022-12-25T17:21:14.455Z,6.73
2022-12-25T17:23:41.138Z,6.75
2022-12-25T17:26:07.512Z,6.80
2022-12-25T17:28:34.697Z,6.81
2022-12-25T17:31:10.692Z,6.82
2022-12-25T17:33:41.789Z,6.80
2022-12-25T17:36:11.415Z,6.83
2022-12-25T17:38:38.345Z,6.80
2022-12-25T17:41:07.331Z,6.74
2022-12-25T17:43:35.977Z,6.73
2022-12-25T17:46:12.703Z,6.86
2022-12-25T17:48:39.171Z,6.90
2022-12-25T17:51:08.324Z,6.91
2022-12-25T17:53:36.203Z,6.92
2022-12-25T17:56:02.623Z,6.91
2022-12-25T17:58:29.253Z,6.91
2022-12-25T18:00:56.459Z,6.87
2022-12-25T18:03:23.124Z,6.87
2022-12-25T18:05:49.604Z,6.90
2022-12-25T18:08:16.025Z,6.89
2022-12-25T18:10:43.659Z,6.87
2022-12-25T18:13:11.719Z,6.88
2022-12-25T18:15:40.180Z,6.85
2022-12-25T18:18:07.489Z,6.82
2022-12-25T18:20:39.931Z,6.83
2022-12-25T18:23:06.745Z,6.81
2022-12-25T18:25:34.060Z,6.80
2022-12-25T18:28:02.659Z,6.68
2022-12-25T18:30:29.361Z,6.68
2022-12-25T18:32:56.050Z,6.71
2022-12-25T18:35:22.814Z,6.73
2022-12-25T18:37:49.166Z,6.79
2022-12-25T18:40:16.105Z,6.79
2022-12-25T18:42:43.236Z,6.76
2022-12-25T18:45:12.857Z,6.76
2022-12-25T18:47:39.244Z,6.68
2022-12-25T18:50:06.887Z,6.55
2022-12-25T18:52:48.983Z,6.52
2022-12-25T18:55:18.064Z,6.49
2022-12-25T18:57:44.453Z,6.46
2022-12-25T19:00:11.024Z,6.35
2022-12-25T19:02:37.905Z,6.32
2022-12-25T19:05:05.563Z,6.22
2022-12-25T19:07:32.403Z,6.15
2022-12-25T19:09:59.322Z,6.11
2022-12-25T19:12:25.684Z,6.09
2022-12-25T19:14:52.738Z,6.02
2022-12-25T19:17:19.616Z,6.01
2022-12-25T19:19:46.159Z,6.01
2022-12-25T19:22:12.644Z,5.94
2022-12-25T19:24:39.493Z,5.92
2022-12-25T19:27:06.498Z,5.90
2022-12-25T19:29:32.926Z,5.86
2022-12-25T19:31:59.412Z,5.82
2022-12-25T19:34:25.994Z,5.79
2022-12-25T19:36:52.333Z,5.75
2022-12-25T19:39:18.908Z,5.78
2022-12-25T19:41:45.718Z,5.74
2022-12-25T19:44:12.121Z,5.70
2022-12-25T19:46:40.647Z,5.74
2022-12-25T19:49:11.483Z,5.80
2022-12-25T19:51:40.507Z,5.79
2022-12-25T19:54:07.806Z,5.77
2022-12-25T19:56:34.544Z,5.68
2022-12-25T19:59:01.112Z,5.67
2022-12-25T20:01:29.134Z,5.66
2022-12-25T20:03:56.916Z,5.67
2022-12-25T20:06:29.063Z,5.72
2022-12-25T20:09:02.142Z,5.70
2022-12-25T20:11:30.147Z,5.59
2022-12-25T20:13:57.213Z,5.59
2022-12-25T20:16:25.118Z,5.53
2022-12-25T20:18:52.405Z,5.50
2022-12-25T20:21:21.489Z,5.53
2022-12-25T20:23:50.038Z,5.57
2022-12-25T20:26:18.572Z,5.47
2022-12-25T20:28:45.512Z,5.45
2022-12-25T20:31:27.682Z,5.42
2022-12-25T20:33:59.185Z,5.46
2022-12-25T20:36:31.037Z,5.48
2022-12-25T20:39:01.640Z,5.56
2022-12-25T20:41:29.553Z,5.57
2022-12-25T20:43:56.682Z,5.59
2022-12-25T20:46:24.480Z,5.60
2022-12-25T20:48:52.073Z,5.65
2022-12-25T20:51:21.208Z,5.72
2022-12-25T20:53:47.953Z,5.66
2022-12-25T20:56:17.067Z,5.63
2022-12-25T20:58:43.769Z,5.65
2022-12-25T21:01:12.926Z,5.64
2022-12-25T21:03:40.471Z,5.60
2022-12-25T21:06:07.585Z,5.78
2022-12-25T21:08:34.322Z,5.77
2022-12-25T21:11:01.542Z,5.75
2022-12-25T21:13:35.865Z,5.78
2022-12-25T21:16:06.425Z,5.66
2022-12-25T21:18:33.455Z,5.68
2022-12-25T21:21:04.599Z,5.79
2022-12-25T21:23:31.731Z,5.81
2022-12-25T21:25:58.165Z,5.75
2022-12-25T21:28:27.315Z,5.84
2022-12-25T21:30:54.131Z,5.88
2022-12-25T21:33:39.199Z,5.86
2022-12-25T21:36:10.672Z,5.90
2022-12-25T21:38:38.084Z,5.88
2022-12-25T21:41:12.491Z,5.98
2022-12-25T21:43:40.109Z,5.93
2022-12-25T21:46:09.181Z,5.94
2022-12-25T21:48:37.737Z,6.00
2022-12-25T21:51:33.841Z,5.97
2022-12-25T21:54:01.393Z,6.06
2022-12-25T21:56:32.456Z,5.99
2022-12-25T21:59:00.883Z,5.96
2022-12-25T22:01:29.552Z,5.89
2022-12-25T22:03:57.116Z,5.93
2022-12-25T22:06:41.990Z,5.84
2022-12-25T22:09:09.024Z,5.90
2022-12-25T22:11:54.218Z,5.96
2022-12-25T22:14:52.904Z,5.88
2022-12-25T22:17:42.816Z,5.83
2022-12-25T22:20:15.085Z,5.83
2022-12-25T22:22:41.822Z,5.81
2022-12-25T22:25:09.757Z,5.81
2022-12-25T22:27:38.135Z,5.78
2022-12-25T22:30:12.028Z,5.77
2022-12-25T22:32:38.615Z,5.90
2022-12-25T22:35:06.086Z,5.94
2022-12-25T22:37:32.646Z,5.96
2022-12-25T22:40:01.739Z,6.02
2022-12-25T22:42:28.729Z,6.04
2022-12-25T22:44:55.208Z,6.06
2022-12-25T22:47:22.110Z,6.09
2022-12-25T22:49:49.330Z,5.97
2022-12-25T22:52:15.913Z,5.90
2022-12-25T22:54:42.550Z,5.92
2022-12-25T22:57:08.890Z,5.87
2022-12-25T22:59:35.345Z,5.82
2022-12-25T23:02:02.264Z,5.74
2022-12-25T23:04:29.041Z,5.67
2022-12-25T23:06:55.849Z,5.65
2022-12-25T23:09:27.868Z,5.59
2022-12-25T23:11:56.158Z,5.59
2022-12-25T23:14:41.946Z,5.58
2022-12-25T23:17:32.122Z,5.54
2022-12-25T23:20:19.253Z,5.62
2022-12-25T23:23:05.134Z,5.54
2022-12-25T23:25:50.831Z,5.62
2022-12-25T23:28:40.229Z,5.71
2022-12-25T23:31:07.424Z,5.71
2022-12-25T23:33:33.872Z,5.72
2022-12-25T23:36:00.200Z,5.55
2022-12-25T23:38:27.042Z,5.41
2022-12-25T23:40:53.384Z,5.45
2022-12-25T23:43:20.282Z,5.48
2022-12-25T23:45:46.609Z,5.53
2022-12-25T23:48:12.944Z,5.50
2022-12-25T23:50:39.683Z,5.54
2022-12-25T23:53:06.000Z,5.56
2022-12-25T23:55:33.635Z,5.53
2022-12-25T23:58:00.308Z,5.52
